Time;durP1;ratioP1;P1;durP2;ratioP2;P2;SDS_P1;SDS_P2;PMS_P1;PMS_P2;Temp;Humidity;BMP_temperature;BMP_pressure;BME280_temperature;BME280_humidity;BME280_pressure;Samples;Min_cycle;Max_cycle;Signal;HPM_P1;HPM_P2
2023/01/20 00:02:18;;;;;;;17.50;12.93;;;;;;;-0.43;100.00;96023.50;5070662;28;20251;-59
2023/01/20 00:04:43;;;;;;;15.80;13.20;;;;;;;-0.38;100.00;96026.31;5073079;28;20182;-60
2023/01/20 00:07:08;;;;;;;15.77;13.13;;;;;;;-0.31;100.00;96019.50;5072989;28;20672;-61
2023/01/20 00:09:34;;;;;;;14.83;12.60;;;;;;;-0.36;100.00;96026.97;5073086;28;20178;-61
2023/01/20 00:11:59;;;;;;;15.33;12.63;;;;;;;-0.40;100.00;96032.66;5073455;28;20173;-62
2023/01/20 00:14:26;;;;;;;14.53;13.00;;;;;;;-0.45;100.00;96035.75;5073710;28;20186;-63
2023/01/20 00:16:52;;;;;;;18.83;14.00;;;;;;;-0.45;100.00;96039.09;5073615;28;20193;-62
2023/01/20 00:19:17;;;;;;;20.13;14.23;;;;;;;-0.59;100.00;96047.63;5055986;28;20223;-61
2023/01/20 00:21:43;;;;;;;20.87;15.23;;;;;;;-0.82;100.00;96044.28;5072626;28;20189;-61
2023/01/20 00:24:08;;;;;;;16.60;13.57;;;;;;;-0.77;100.00;96042.00;5072692;28;20209;-60
2023/01/20 00:26:34;;;;;;;16.10;14.00;;;;;;;-0.63;100.00;96054.09;5072199;28;20177;-61
2023/01/20 00:28:59;;;;;;;19.17;14.80;;;;;;;-0.43;100.00;96051.81;5054813;28;20213;-61
2023/01/20 00:31:27;;;;;;;18.23;13.47;;;;;;;-0.53;100.00;96056.41;5072161;28;20272;-63
2023/01/20 00:33:54;;;;;;;17.07;13.70;;;;;;;-0.53;100.00;96052.06;5072152;28;20193;-61
2023/01/20 00:36:22;;;;;;;20.30;14.80;;;;;;;-0.39;100.00;96049.69;5072802;28;20260;-61
2023/01/20 00:38:47;;;;;;;19.37;14.37;;;;;;;-0.56;100.00;96049.81;5072734;28;20614;-61
2023/01/20 00:41:13;;;;;;;15.87;14.00;;;;;;;-0.57;100.00;96047.44;5072661;28;20185;-61
2023/01/20 00:43:39;;;;;;;17.07;13.97;;;;;;;-0.54;100.00;96062.53;5072276;28;20574;-61
2023/01/20 00:46:05;;;;;;;16.67;14.57;;;;;;;-0.57;100.00;96060.31;5072613;28;20180;-62
2023/01/20 00:48:32;;;;;;;17.73;14.23;;;;;;;-0.55;100.00;96066.06;5072369;28;20549;-61
2023/01/20 00:50:57;;;;;;;19.23;14.67;;;;;;;-0.64;100.00;96067.13;5072227;28;20204;-61
2023/01/20 00:53:22;;;;;;;17.80;14.83;;;;;;;-0.62;100.00;96062.63;5072232;28;20197;-61
2023/01/20 00:55:48;;;;;;;17.87;13.47;;;;;;;-0.57;100.00;96065.47;5072137;28;20173;-60
2023/01/20 00:58:13;;;;;;;19.00;14.33;;;;;;;-0.59;100.00;96064.81;5072322;28;20188;-61
2023/01/20 01:00:39;;;;;;;17.30;14.23;;;;;;;-0.60;100.00;96068.38;5069110;28;20283;-62
2023/01/20 01:03:04;;;;;;;17.50;13.57;;;;;;;-0.72;100.00;96077.47;5071662;28;20685;-60
2023/01/20 01:05:30;;;;;;;17.63;13.97;;;;;;;-0.64;100.00;96075.66;5072169;28;20227;-62
2023/01/20 01:07:56;;;;;;;18.30;14.30;;;;;;;-0.60;100.00;96076.88;5071651;28;20288;-61
2023/01/20 01:10:21;;;;;;;18.80;14.83;;;;;;;-0.66;100.00;96077.59;5072405;28;20260;-61
2023/01/20 01:12:47;;;;;;;16.07;13.03;;;;;;;-0.63;100.00;96094.47;5072067;28;20204;-61
2023/01/20 01:15:12;;;;;;;15.53;14.00;;;;;;;-0.49;100.00;96084.19;5072124;28;20208;-61
2023/01/20 01:17:38;;;;;;;16.27;13.37;;;;;;;-0.48;100.00;96085.00;5071983;28;20204;-61
2023/01/20 01:20:04;;;;;;;16.93;13.80;;;;;;;-0.52;100.00;96089.69;5071222;28;20184;-61
2023/01/20 01:22:32;;;;;;;15.00;12.83;;;;;;;-0.43;100.00;96101.50;5071966;28;20628;-59
2023/01/20 01:24:57;;;;;;;17.47;14.13;;;;;;;-0.48;100.00;96097.84;5071931;28;20173;-60
2023/01/20 01:27:23;;;;;;;16.87;14.43;;;;;;;-0.34;100.00;96096.28;5065824;28;20215;-60
2023/01/20 01:29:48;;;;;;;18.90;14.37;;;;;;;-0.22;100.00;96105.97;5072093;28;20185;-60
2023/01/20 01:32:14;;;;;;;17.20;14.40;;;;;;;-0.26;100.00;96111.66;5070942;28;20228;-59
2023/01/20 01:34:40;;;;;;;19.30;15.87;;;;;;;-0.10;100.00;96114.84;5071841;28;20182;-61
2023/01/20 01:37:06;;;;;;;19.43;15.80;;;;;;;-0.04;100.00;96116.72;5053571;28;20180;-60
2023/01/20 01:39:31;;;;;;;21.10;15.80;;;;;;;-0.21;100.00;96111.91;5053655;28;20256;-61
2023/01/20 01:41:56;;;;;;;23.60;16.70;;;;;;;-0.44;100.00;96120.50;5053592;28;20529;-61
2023/01/20 01:44:25;;;;;;;24.50;15.67;;;;;;;-0.55;100.00;96122.69;5071542;28;20169;-61
2023/01/20 01:46:50;;;;;;;22.67;15.17;;;;;;;-0.55;100.00;96123.47;5071901;28;20525;-61
2023/01/20 01:49:21;;;;;;;19.50;14.50;;;;;;;-0.59;100.00;96121.44;5071440;28;20192;-61
2023/01/20 01:51:57;;;;;;;20.53;15.50;;;;;;;-0.59;100.00;96117.09;5071531;28;20193;-61
2023/01/20 01:54:29;;;;;;;19.07;15.07;;;;;;;-0.63;100.00;96123.56;5053608;28;20192;-61
2023/01/20 01:56:54;;;;;;;23.40;15.33;;;;;;;-0.62;100.00;96114.06;5071398;28;20177;-61
2023/01/20 01:59:20;;;;;;;17.40;15.30;;;;;;;-0.64;100.00;96116.81;5070939;28;20185;-61
2023/01/20 02:01:51;;;;;;;19.97;14.57;;;;;;;-0.64;100.00;96119.38;5069376;28;20232;-61
2023/01/20 02:04:22;;;;;;;21.97;14.83;;;;;;;-0.61;100.00;96121.59;5071765;28;20173;-61
2023/01/20 02:06:51;;;;;;;17.63;14.00;;;;;;;-0.66;100.00;96121.31;5071763;28;20220;-61
2023/01/20 02:09:17;;;;;;;17.63;14.43;;;;;;;-0.60;100.00;96123.22;5071219;28;20589;-59
2023/01/20 02:11:47;;;;;;;18.47;14.63;;;;;;;-0.61;100.00;96120.81;5071856;28;20177;-61
2023/01/20 02:14:15;;;;;;;20.10;13.93;;;;;;;-0.59;100.00;96124.00;5071714;28;20181;-58
2023/01/20 02:17:03;;;;;;;16.70;13.40;;;;;;;-0.44;100.00;96130.00;5071600;28;20177;-59
2023/01/20 02:19:34;;;;;;;16.93;13.80;;;;;;;-0.45;100.00;96129.19;5071498;28;20634;-61
2023/01/20 02:22:04;;;;;;;15.47;13.03;;;;;;;-0.51;100.00;96135.06;5052922;28;20309;-59
2023/01/20 02:24:48;;;;;;;16.30;13.07;;;;;;;-0.37;100.00;96135.25;5071897;28;20165;-60
2023/01/20 02:27:22;;;;;;;16.83;13.97;;;;;;;-0.47;100.00;96132.91;5070589;28;20202;-60
2023/01/20 02:30:06;;;;;;;16.53;14.70;;;;;;;-0.57;100.00;96133.16;5071560;28;20242;-59
2023/01/20 02:32:45;;;;;;;14.73;13.13;;;;;;;-0.52;100.00;96142.94;5071349;28;20576;-61
2023/01/20 02:35:28;;;;;;;17.10;13.50;;;;;;;-0.47;100.00;96144.03;5071038;28;20177;-61
2023/01/20 02:38:03;;;;;;;17.13;14.37;;;;;;;-0.43;100.00;96141.88;5071491;28;20226;-61
2023/01/20 02:40:47;;;;;;;16.57;13.47;;;;;;;-0.41;100.00;96137.38;5064485;28;20581;-60
2023/01/20 02:43:26;;;;;;;14.93;12.47;;;;;;;-0.32;100.00;96138.09;5071762;28;20257;-62
2023/01/20 02:46:10;;;;;;;15.17;12.90;;;;;;;-0.40;100.00;96136.41;5074025;28;20250;-60
2023/01/20 02:48:43;;;;;;;15.47;12.87;;;;;;;-0.31;100.00;96150.00;5054884;28;20706;-61
2023/01/20 02:51:13;;;;;;;13.03;11.63;;;;;;;-0.08;100.00;96145.59;5074496;28;20223;-61
2023/01/20 02:54:00;;;;;;;17.73;13.10;;;;;;;-0.28;100.00;96153.00;5074503;28;20201;-62
2023/01/20 02:56:28;;;;;;;14.13;12.63;;;;;;;-0.53;100.00;96159.34;5073767;28;20192;-62
2023/01/20 02:59:03;;;;;;;21.23;14.57;;;;;;;-0.54;100.00;96155.16;5075109;28;20181;-63
2023/01/20 03:01:35;;;;;;;15.97;14.23;;;;;;;-0.51;100.00;96155.63;5072706;28;20591;-62
2023/01/20 03:04:03;;;;;;;15.33;13.80;;;;;;;-0.47;100.00;96159.47;5074380;28;20204;-61
2023/01/20 03:06:45;;;;;;;16.60;14.13;;;;;;;-0.45;100.00;96156.72;5074375;28;20173;-62
2023/01/20 03:09:17;;;;;;;16.57;14.20;;;;;;;-0.55;100.00;96158.72;5074369;28;20181;-62
2023/01/20 03:12:03;;;;;;;25.53;15.00;;;;;;;-0.64;100.00;96159.75;5074134;28;20174;-62
2023/01/20 03:14:29;;;;;;;16.87;13.97;;;;;;;-0.48;100.00;96167.34;5073540;28;20259;-60
2023/01/20 03:16:54;;;;;;;16.63;14.83;;;;;;;-0.65;100.00;96166.66;5074131;28;20173;-61
2023/01/20 03:21:55;;;;;;;21.80;15.47;;;;;;;-0.82;100.00;96174.66;5019389;23;20270;-60
2023/01/20 03:24:22;;;;;;;17.30;14.97;;;;;;;-0.72;100.00;96170.91;4994577;28;20632;-59
2023/01/20 03:26:48;;;;;;;20.67;14.87;;;;;;;-0.71;100.00;96169.94;4994205;28;20192;-61
2023/01/20 03:29:14;;;;;;;15.27;13.47;;;;;;;-0.76;100.00;96179.13;4994570;28;20267;-60
2023/01/20 03:31:48;;;;;;;14.67;13.17;;;;;;;-0.59;100.00;96171.13;4994530;28;20211;-61
2023/01/20 03:34:18;;;;;;;17.57;14.63;;;;;;;-0.67;100.00;96176.31;4993421;28;20226;-61
2023/01/20 03:36:45;;;;;;;16.47;13.97;;;;;;;-0.66;100.00;96167.63;4994626;28;20191;-60
2023/01/20 03:39:10;;;;;;;16.77;14.20;;;;;;;-0.65;100.00;96181.31;4994429;28;20215;-60
2023/01/20 03:41:49;;;;;;;17.23;14.43;;;;;;;-0.57;100.00;96176.91;4994079;28;20677;-60
2023/01/20 03:44:21;;;;;;;14.40;12.67;;;;;;;-0.58;100.00;96184.81;4994769;28;20555;-60
2023/01/20 03:46:57;;;;;;;16.03;13.57;;;;;;;-0.61;100.00;96178.22;4994335;28;20179;-60
2023/01/20 03:49:50;;;;;;;16.83;13.27;;;;;;;-0.50;100.00;96188.09;4994102;28;20195;-61
2023/01/20 03:52:28;;;;;;;14.87;12.90;;;;;;;-0.57;100.00;96188.97;4994301;28;20196;-61
2023/01/20 03:55:01;;;;;;;15.93;14.23;;;;;;;-0.63;100.00;96194.81;4992281;28;20278;-59
2023/01/20 03:57:40;;;;;;;16.87;13.60;;;;;;;-0.49;100.00;96196.63;4994256;28;20187;-60
2023/01/20 04:00:08;;;;;;;15.50;13.50;;;;;;;-0.45;100.00;96200.47;4994049;28;20191;-59
2023/01/20 04:02:34;;;;;;;17.17;13.67;;;;;;;-0.59;100.00;96203.78;4994236;28;20207;-61
2023/01/20 04:05:01;;;;;;;17.57;14.27;;;;;;;-0.57;100.00;96200.06;4994386;28;20179;-60
2023/01/20 04:07:30;;;;;;;15.70;13.77;;;;;;;-0.49;100.00;96206.91;4992485;28;20206;-59
2023/01/20 04:10:00;;;;;;;16.93;14.37;;;;;;;-0.50;100.00;96216.41;4994078;28;20187;-60
2023/01/20 04:12:26;;;;;;;16.50;14.00;;;;;;;-0.48;100.00;96219.63;4992426;28;20566;-60
2023/01/20 04:14:51;;;;;;;15.93;13.53;;;;;;;-0.61;100.00;96211.66;4993990;28;20601;-60
2023/01/20 04:17:17;;;;;;;18.87;14.77;;;;;;;-0.69;100.00;96211.72;4993548;28;20230;-58
2023/01/20 04:19:42;;;;;;;17.87;14.60;;;;;;;-0.48;100.00;96206.75;4997976;28;20237;-58
2023/01/20 04:22:26;;;;;;;15.77;13.53;;;;;;;-0.50;100.00;96221.56;5013495;28;20513;-60
2023/01/20 04:25:02;;;;;;;16.40;14.17;;;;;;;-0.64;100.00;96217.16;5004166;28;20179;-60
2023/01/20 04:27:28;;;;;;;16.57;13.67;;;;;;;-0.53;100.00;96221.13;5012444;28;20250;-60
2023/01/20 04:29:53;;;;;;;18.93;13.70;;;;;;;-0.65;100.00;96222.47;5013248;28;20241;-60
2023/01/20 04:32:19;;;;;;;15.97;14.00;;;;;;;-0.57;100.00;96223.25;5013162;28;20293;-61
2023/01/20 04:34:44;;;;;;;16.23;13.57;;;;;;;-0.61;100.00;96221.94;5012673;28;20216;-60
2023/01/20 04:37:09;;;;;;;16.37;13.67;;;;;;;-0.66;100.00;96228.59;5012934;28;20179;-61
2023/01/20 04:39:35;;;;;;;15.97;13.73;;;;;;;-0.62;100.00;96230.66;5012864;28;20192;-60
2023/01/20 04:42:00;;;;;;;18.17;14.37;;;;;;;-0.59;100.00;96229.50;5013155;28;20263;-60
2023/01/20 04:44:26;;;;;;;17.87;14.27;;;;;;;-0.64;100.00;96234.38;5012984;28;20194;-61
2023/01/20 04:46:55;;;;;;;14.70;12.90;;;;;;;-0.74;100.00;96233.78;5013077;28;20194;-60
2023/01/20 04:49:21;;;;;;;17.23;14.33;;;;;;;-0.85;100.00;96234.97;5013299;28;20183;-58
2023/01/20 04:51:46;;;;;;;17.63;14.20;;;;;;;-0.91;100.00;96245.94;5013208;28;20197;-60
2023/01/20 04:54:11;;;;;;;16.43;13.03;;;;;;;-0.91;100.00;96251.09;5012774;28;20628;-57
2023/01/20 04:56:37;;;;;;;15.57;12.90;;;;;;;-0.94;100.00;96249.63;5013371;28;20171;-58
2023/01/20 04:59:03;;;;;;;16.33;12.80;;;;;;;-0.86;100.00;96256.53;5013218;28;20191;-59
2023/01/20 05:01:29;;;;;;;15.10;13.53;;;;;;;-0.92;100.00;96262.34;5013872;28;20190;-58
2023/01/20 05:03:54;;;;;;;15.37;13.63;;;;;;;-0.82;100.00;96260.34;5012733;28;20207;-55
2023/01/20 05:06:20;;;;;;;17.43;15.00;;;;;;;-0.82;100.00;96264.69;5012784;28;20191;-59
2023/01/20 05:08:45;;;;;;;17.47;14.20;;;;;;;-0.92;100.00;96272.63;5011950;28;20208;-60
2023/01/20 05:11:10;;;;;;;16.63;13.63;;;;;;;-1.00;100.00;96275.22;5012538;28;20195;-60
2023/01/20 05:13:38;;;;;;;16.63;14.00;;;;;;;-0.92;100.00;96275.19;5012418;28;20203;-61
2023/01/20 05:16:05;;;;;;;21.77;15.30;;;;;;;-0.72;100.00;96283.28;5011142;28;20183;-59
2023/01/20 05:18:32;;;;;;;22.97;14.77;;;;;;;-0.70;100.00;96286.50;5012047;28;20576;-60
2023/01/20 05:20:58;;;;;;;20.30;15.47;;;;;;;-0.75;100.00;96279.31;5009742;28;20242;-59
2023/01/20 05:23:24;;;;;;;21.27;15.50;;;;;;;-0.45;100.00;96280.28;5012326;28;20234;-59
2023/01/20 05:25:52;;;;;;;20.47;16.47;;;;;;;-0.71;100.00;96290.84;5009159;28;20191;-61
2023/01/20 05:28:18;;;;;;;21.73;16.07;;;;;;;-0.74;100.00;96291.19;5012215;28;20595;-61
2023/01/20 05:30:44;;;;;;;18.93;15.80;;;;;;;-0.69;100.00;96295.84;5012307;28;20210;-61
2023/01/20 05:33:10;;;;;;;21.43;16.40;;;;;;;-0.77;100.00;96298.44;5011969;28;20207;-61
2023/01/20 05:35:39;;;;;;;18.60;15.40;;;;;;;-0.94;100.00;96298.50;4994481;28;20577;-61
2023/01/20 05:38:05;;;;;;;18.93;14.70;;;;;;;-0.77;100.00;96301.00;5011952;28;20758;-61
2023/01/20 05:40:30;;;;;;;17.47;14.43;;;;;;;-0.88;100.00;96308.13;5011993;28;20187;-61
2023/01/20 05:42:59;;;;;;;15.77;13.73;;;;;;;-1.02;100.00;96308.03;5012027;28;20209;-61
2023/01/20 05:45:24;;;;;;;16.97;14.83;;;;;;;-0.98;100.00;96315.25;5012272;28;20254;-61
2023/01/20 05:47:57;;;;;;;18.77;15.40;;;;;;;-0.85;100.00;96323.25;5011926;28;20295;-61
2023/01/20 05:50:23;;;;;;;19.37;15.53;;;;;;;-0.73;100.00;96318.53;5011986;28;20183;-61
2023/01/20 05:52:49;;;;;;;18.83;14.67;;;;;;;-0.89;100.00;96321.94;5011925;28;20681;-61
2023/01/20 05:55:14;;;;;;;17.27;13.30;;;;;;;-0.71;100.00;96324.28;5012052;28;20183;-61
2023/01/20 05:57:39;;;;;;;17.70;14.60;;;;;;;-0.77;100.00;96319.00;5012086;28;20166;-61
2023/01/20 06:00:06;;;;;;;16.20;14.00;;;;;;;-0.81;100.00;96317.75;5011934;28;20214;-60
2023/01/20 06:03:07;;;;;;;17.47;14.47;;;;;;;-0.73;100.00;96331.41;5012331;28;20203;-60
2023/01/20 06:05:33;;;;;;;17.70;14.53;;;;;;;-0.70;100.00;96328.47;5012136;28;20175;-60
2023/01/20 06:08:05;;;;;;;21.10;14.37;;;;;;;-0.82;100.00;96326.44;5011721;28;20555;-59
2023/01/20 06:10:30;;;;;;;20.63;14.00;;;;;;;-0.69;100.00;96329.28;5011823;28;20185;-60
2023/01/20 06:12:56;;;;;;;18.97;13.83;;;;;;;-0.57;100.00;96327.94;5011525;28;20320;-58
2023/01/20 06:15:24;;;;;;;16.67;14.00;;;;;;;-0.70;100.00;96332.81;5011946;28;20191;-61
2023/01/20 06:17:50;;;;;;;15.83;13.07;;;;;;;-0.69;100.00;96337.00;4994126;28;20233;-59
2023/01/20 06:20:16;;;;;;;16.27;13.90;;;;;;;-0.67;100.00;96341.00;5013394;28;20238;-61
2023/01/20 06:22:42;;;;;;;14.60;12.53;;;;;;;-0.57;100.00;96340.81;5015918;28;20211;-61
2023/01/20 06:25:08;;;;;;;15.27;13.33;;;;;;;-0.68;100.00;96343.75;5014977;28;20175;-61
2023/01/20 06:27:33;;;;;;;18.13;14.20;;;;;;;-0.84;100.00;96339.47;5015986;28;20699;-62
2023/01/20 06:30:01;;;;;;;27.43;24.80;;;;;;;-0.86;100.00;96346.56;5016139;28;20187;-61
2023/01/20 06:32:26;;;;;;;17.40;14.10;;;;;;;-0.89;100.00;96350.25;5015433;28;20294;-61
2023/01/20 06:34:52;;;;;;;18.67;14.63;;;;;;;-0.88;100.00;96351.03;5015655;28;20609;-62
2023/01/20 06:37:18;;;;;;;21.07;19.13;;;;;;;-0.84;100.00;96360.84;5016846;28;20182;-63
2023/01/20 06:39:44;;;;;;;17.47;13.97;;;;;;;-0.97;100.00;96367.47;5016197;28;20635;-62
2023/01/20 06:42:09;;;;;;;15.80;13.57;;;;;;;-1.05;100.00;96363.16;5016278;28;20242;-63
2023/01/20 06:44:35;;;;;;;18.13;13.17;;;;;;;-1.10;100.00;96368.00;5016991;28;20244;-62
2023/01/20 06:47:00;;;;;;;15.07;13.27;;;;;;;-1.21;100.00;96375.25;5018365;28;20222;-62
2023/01/20 06:49:26;;;;;;;17.30;13.47;;;;;;;-0.99;100.00;96374.56;5022757;28;20194;-62
2023/01/20 06:51:52;;;;;;;16.33;12.50;;;;;;;-1.05;100.00;96378.59;5021523;28;20175;-66
2023/01/20 06:54:17;;;;;;;15.27;12.27;;;;;;;-1.07;100.00;96383.09;5006254;28;20175;-61
2023/01/20 06:56:43;;;;;;;17.80;13.13;;;;;;;-0.88;100.00;96387.88;5015907;28;20632;-61
2023/01/20 06:59:10;;;;;;;15.30;13.33;;;;;;;-1.08;100.00;96389.22;5015009;28;20226;-62
2023/01/20 07:01:35;;;;;;;15.43;12.90;;;;;;;-0.99;100.00;96395.13;5014388;28;20183;-62
2023/01/20 07:04:01;;;;;;;15.87;12.97;;;;;;;-0.86;100.00;96396.22;5014815;28;20210;-61
2023/01/20 07:06:30;;;;;;;15.00;13.40;;;;;;;-0.83;100.00;96402.78;4997136;28;20195;-64
2023/01/20 07:08:57;;;;;;;16.90;13.30;;;;;;;-0.77;100.00;96412.44;5014677;28;20203;-64
2023/01/20 07:11:22;;;;;;;18.00;13.80;;;;;;;-0.80;100.00;96417.91;5014882;28;20183;-64
2023/01/20 07:13:52;;;;;;;17.50;13.43;;;;;;;-0.66;100.00;96417.22;5014290;28;20294;-61
2023/01/20 07:16:17;;;;;;;17.13;14.87;;;;;;;-0.79;100.00;96419.53;5016387;28;20206;-61
2023/01/20 07:18:48;;;;;;;16.20;13.30;;;;;;;-0.71;100.00;96427.22;5016297;28;20184;-57
2023/01/20 07:21:14;;;;;;;16.40;13.53;;;;;;;-0.79;100.00;96431.59;5012407;28;20253;-60
2023/01/20 07:23:39;;;;;;;16.70;13.93;;;;;;;-0.87;100.00;96420.34;5014659;28;20293;-64
2023/01/20 07:26:07;;;;;;;18.17;14.00;;;;;;;-0.76;100.00;96431.25;5013647;28;20218;-57
2023/01/20 07:28:34;;;;;;;17.10;13.50;;;;;;;-0.94;100.00;96439.97;5014184;28;20222;-63
2023/01/20 07:31:14;;;;;;;16.87;14.20;;;;;;;-0.80;100.00;96446.22;5012934;28;20187;-61
2023/01/20 07:33:39;;;;;;;15.17;13.50;;;;;;;-0.94;100.00;96449.44;5014581;28;20210;-58
2023/01/20 07:36:10;;;;;;;19.33;14.53;;;;;;;-0.90;100.00;96448.16;5013865;28;20183;-61
2023/01/20 07:38:37;;;;;;;17.63;14.03;;;;;;;-0.91;100.00;96451.69;5008903;28;20175;-61
2023/01/20 07:41:05;;;;;;;16.87;14.53;;;;;;;-0.90;100.00;96456.69;5013118;28;20172;-59
2023/01/20 07:43:31;;;;;;;23.17;15.87;;;;;;;-0.93;100.00;96457.00;5013292;28;20203;-60
2023/01/20 07:45:57;;;;;;;17.03;14.67;;;;;;;-0.91;100.00;96467.13;5013813;28;20291;-62
2023/01/20 07:48:24;;;;;;;28.07;25.73;;;;;;;-0.99;100.00;96465.38;5013416;28;20556;-62
2023/01/20 07:51:01;;;;;;;20.00;15.00;;;;;;;-0.77;100.00;96471.59;5014178;28;20604;-61
2023/01/20 07:53:32;;;;;;;20.90;14.40;;;;;;;-0.74;100.00;96473.06;4988988;28;20210;-61
2023/01/20 07:56:10;;;;;;;19.10;14.60;;;;;;;-0.63;100.00;96481.22;4995540;28;20186;-62
2023/01/20 07:58:36;;;;;;;17.93;14.13;;;;;;;-0.36;100.00;96476.66;4995638;28;20179;-63
2023/01/20 08:01:11;;;;;;;18.70;14.77;;;;;;;-1.17;100.00;96487.09;5012733;28;20233;-69
2023/01/20 08:03:36;;;;;;;16.63;13.97;;;;;;;-0.89;100.00;96493.47;5013048;28;20279;-64
2023/01/20 08:06:03;;;;;;;16.60;12.60;;;;;;;-0.75;100.00;96492.03;5012931;28;20659;-63
2023/01/20 08:08:31;;;;;;;48.17;44.77;;;;;;;-0.84;100.00;96502.31;5012962;28;20621;-64
2023/01/20 08:10:58;;;;;;;17.07;14.07;;;;;;;-0.71;100.00;96498.44;4995224;28;20191;-63
2023/01/20 08:13:24;;;;;;;16.87;13.40;;;;;;;-0.64;100.00;96497.63;5012681;28;20211;-63
2023/01/20 08:15:49;;;;;;;16.17;13.87;;;;;;;-0.36;100.00;96500.63;4994714;28;20325;-64
2023/01/20 08:18:15;;;;;;;17.13;13.97;;;;;;;0.13;100.00;96503.00;5012207;28;20199;-64
2023/01/20 08:20:41;;;;;;;18.60;15.57;;;;;;;0.35;100.00;96497.91;5009777;28;20258;-65
2023/01/20 08:23:06;;;;;;;17.63;13.73;;;;;;;0.37;100.00;96506.28;5011589;28;20203;-61
2023/01/20 08:25:32;;;;;;;16.07;14.43;;;;;;;0.24;100.00;96500.84;5013579;28;20185;-63
2023/01/20 08:27:57;;;;;;;15.67;13.97;;;;;;;0.06;100.00;96505.44;5023528;28;20532;-62
2023/01/20 08:30:23;;;;;;;16.97;13.97;;;;;;;0.07;100.00;96509.63;5013627;28;20654;-64
2023/01/20 08:32:48;;;;;;;16.37;13.87;;;;;;;-0.04;100.00;96517.72;5013617;28;20203;-64
2023/01/20 08:35:14;;;;;;;17.43;15.73;;;;;;;-0.05;100.00;96516.13;5013138;28;20183;-65
2023/01/20 08:37:39;;;;;;;17.97;14.60;;;;;;;-0.06;100.00;96517.13;5013600;28;20569;-64
2023/01/20 08:40:08;;;;;;;15.93;14.17;;;;;;;-0.05;100.00;96524.66;5013049;28;20273;-64
2023/01/20 08:42:33;;;;;;;19.90;14.33;;;;;;;0.17;100.00;96520.53;5013278;28;20211;-64
2023/01/20 08:44:59;;;;;;;19.80;13.70;;;;;;;0.04;100.00;96528.00;5013615;28;20518;-65
2023/01/20 08:47:24;;;;;;;14.20;12.70;;;;;;;0.06;100.00;96535.59;5012411;28;20226;-65
2023/01/20 08:49:52;;;;;;;18.13;13.13;;;;;;;0.19;100.00;96531.47;5012129;28;20190;-63
2023/01/20 08:52:17;;;;;;;20.37;13.50;;;;;;;0.26;100.00;96537.56;5012495;28;20195;-63
2023/01/20 08:54:44;;;;;;;15.93;14.17;;;;;;;0.11;100.00;96547.00;5012925;28;20693;-63
2023/01/20 08:57:10;;;;;;;16.53;13.73;;;;;;;0.21;100.00;96542.44;5012922;28;20167;-62
2023/01/20 08:59:35;;;;;;;16.53;14.47;;;;;;;0.49;100.00;96549.72;5012997;28;20183;-63
2023/01/20 09:02:00;;;;;;;17.10;15.33;;;;;;;0.34;100.00;96553.00;5012158;28;20214;-64
2023/01/20 09:04:36;;;;;;;16.70;15.00;;;;;;;0.55;100.00;96555.00;5012636;28;20206;-62
2023/01/20 09:07:02;;;;;;;214.07;199.13;;;;;;;0.56;100.00;96558.38;5012282;28;20175;-64
2023/01/20 09:09:28;;;;;;;15.50;13.90;;;;;;;0.40;100.00;96556.66;5012459;28;20245;-62
2023/01/20 09:11:53;;;;;;;15.37;13.13;;;;;;;0.53;100.00;96561.28;5012444;28;20647;-63
2023/01/20 09:14:20;;;;;;;15.90;12.47;;;;;;;0.46;100.00;96557.75;5013083;28;20257;-63
2023/01/20 09:16:46;;;;;;;15.13;12.70;;;;;;;0.44;100.00;96565.69;5012720;28;20490;-64
2023/01/20 09:19:12;;;;;;;17.67;12.30;;;;;;;0.44;100.00;96570.03;5009772;28;20179;-63
2023/01/20 09:21:37;;;;;;;14.40;11.83;;;;;;;0.59;100.00;96574.31;5012637;28;20175;-63
2023/01/20 09:24:03;;;;;;;13.43;11.93;;;;;;;0.45;100.00;96577.56;5012688;28;20683;-64
2023/01/20 09:26:37;;;;;;;15.10;12.57;;;;;;;0.47;100.00;96577.41;5011952;28;20197;-64
2023/01/20 09:29:09;;;;;;;13.77;12.10;;;;;;;0.35;100.00;96580.38;5012440;28;20550;-64
2023/01/20 09:31:42;;;;;;;15.07;12.23;;;;;;;0.40;100.00;96579.88;5012082;28;20639;-63
2023/01/20 09:34:09;;;;;;;14.30;12.80;;;;;;;0.39;100.00;96573.91;5012115;28;20203;-63
2023/01/20 09:36:34;;;;;;;16.23;11.90;;;;;;;0.37;100.00;96588.75;5012685;28;20175;-64
2023/01/20 09:44:46;;;;;;;14.37;11.30;;;;;;;0.31;100.00;96596.34;5012693;28;20540;-64
2023/01/20 09:47:33;;;;;;;14.10;12.60;;;;;;;0.35;100.00;96592.44;5012994;28;21059;-64
2023/01/20 09:53:54;;;;;;;18.13;12.40;;;;;;;0.21;100.00;96601.69;5023730;28;20337;-63
2023/01/20 09:56:23;;;;;;;15.43;12.03;;;;;;;0.16;100.00;96606.56;5016876;28;20182;-63
2023/01/20 09:58:52;;;;;;;13.23;11.83;;;;;;;0.17;100.00;96608.13;4999083;28;20174;-64
2023/01/20 10:01:35;;;;;;;13.80;11.33;;;;;;;0.20;100.00;96607.00;5015810;28;20198;-63
2023/01/20 10:04:12;;;;;;;14.07;12.57;;;;;;;0.26;100.00;96604.56;4998723;28;20713;-63
2023/01/20 10:07:07;;;;;;;13.30;11.97;;;;;;;0.44;100.00;96604.34;5016128;28;20186;-63
2023/01/20 10:09:43;;;;;;;17.80;12.30;;;;;;;0.48;100.00;96605.63;5006951;28;20195;-63
2023/01/20 10:12:18;;;;;;;22.97;13.37;;;;;;;0.49;100.00;96603.84;5015789;28;20202;-63
2023/01/20 10:14:54;;;;;;;23.63;12.33;;;;;;;0.58;100.00;96603.63;4998463;28;20636;-63
2023/01/20 10:17:36;;;;;;;13.83;12.43;;;;;;;0.63;100.00;96601.34;5015687;28;20269;-63
2023/01/20 10:20:09;;;;;;;12.60;11.20;;;;;;;0.76;100.00;96604.19;5004571;28;20584;-63
2023/01/20 10:22:39;;;;;;;15.90;12.07;;;;;;;0.68;100.00;96599.06;5015248;28;20686;-64
2023/01/20 10:25:08;;;;;;;13.40;11.73;;;;;;;1.01;100.00;96597.09;5014633;28;20225;-65
2023/01/20 10:27:39;;;;;;;15.67;12.07;;;;;;;0.91;100.00;96603.44;5015124;28;20579;-64
2023/01/20 10:30:14;;;;;;;15.63;12.80;;;;;;;0.89;100.00;96608.00;4995985;28;20164;-64
2023/01/20 10:33:00;;;;;;;13.90;12.50;;;;;;;0.99;100.00;96613.72;5014566;28;20256;-64
2023/01/20 10:35:32;;;;;;;14.03;12.50;;;;;;;1.12;100.00;96609.59;5015317;28;20635;-63
2023/01/20 10:37:57;;;;;;;15.53;12.47;;;;;;;1.27;100.00;96611.44;5015119;28;20339;-63
2023/01/20 10:40:32;;;;;;;13.73;12.27;;;;;;;1.29;100.00;96612.06;5014998;28;20597;-64
2023/01/20 10:43:03;;;;;;;13.43;11.20;;;;;;;1.44;100.00;96610.34;5012685;28;20215;-63
2023/01/20 10:46:07;;;;;;;13.27;10.43;;;;;;;1.50;100.00;96614.81;5015723;28;20179;-64
2023/01/20 10:48:47;;;;;;;13.57;10.87;;;;;;;1.54;100.00;96618.66;5015394;28;20697;-63
2023/01/20 10:51:18;;;;;;;10.43;9.43;;;;;;;1.37;100.00;96609.44;5014646;28;20322;-63
2023/01/20 10:54:23;;;;;;;10.80;9.73;;;;;;;1.51;100.00;96614.63;5014805;28;20209;-63
2023/01/20 10:56:54;;;;;;;11.93;10.63;;;;;;;1.48;100.00;96612.41;5012477;28;20206;-63
2023/01/20 10:59:42;;;;;;;13.10;10.73;;;;;;;1.56;100.00;96614.91;5014957;28;20192;-63
2023/01/20 11:02:23;;;;;;;11.43;10.40;;;;;;;1.51;100.00;96616.41;5009130;28;20210;-62
2023/01/20 11:05:24;;;;;;;12.10;10.30;;;;;;;1.31;100.00;96615.28;5014579;28;20637;-63
2023/01/20 11:07:52;;;;;;;10.40;9.33;;;;;;;1.39;100.00;96616.03;5014627;28;20203;-64
2023/01/20 11:10:24;;;;;;;12.63;9.20;;;;;;;1.21;100.00;96618.09;5015101;28;20623;-61
2023/01/20 11:12:56;;;;;;;12.17;9.80;;;;;;;1.35;100.00;96613.94;5014410;28;20298;-62
2023/01/20 11:15:44;;;;;;;9.90;8.90;;;;;;;1.15;100.00;96624.75;5014974;28;20187;-63
2023/01/20 11:18:13;;;;;;;12.03;9.90;;;;;;;1.10;100.00;96619.31;5003529;28;20733;-65
2023/01/20 11:20:52;;;;;;;13.43;10.00;;;;;;;1.07;100.00;96614.47;5012340;28;20235;-62
2023/01/20 11:23:21;;;;;;;12.60;10.87;;;;;;;1.06;100.00;96623.19;5014397;28;20226;-62
2023/01/20 11:25:58;;;;;;;12.57;10.77;;;;;;;1.04;100.00;96614.81;5013847;28;20202;-61
2023/01/20 11:28:24;;;;;;;11.50;10.40;;;;;;;1.06;100.00;96620.59;5014363;28;20187;-62
2023/01/20 11:30:53;;;;;;;11.57;10.53;;;;;;;1.05;100.00;96623.38;5014096;28;20179;-62
2023/01/20 11:33:26;;;;;;;12.73;9.80;;;;;;;1.06;100.00;96620.59;5014002;28;20209;-61
2023/01/20 11:36:00;;;;;;;13.07;11.00;;;;;;;1.12;100.00;96619.91;5014316;28;20187;-58